CheckWX is a tool to help pilots better visualize weather data.  It is not intended as a substitute for an official pre-flight weather briefing.

21:23:23 UTC

OSLK METAR
Bassel Al-Assad International Airport
Latakia, Syria
Current

23 mins ago

OSLK 212100Z 14008KT 9999 FEW026 TCU SCT030 BKN100 11/09 Q1013
Observed
Feb-21 @ 21:00 UTC
Wind
  • 140° at 8 KTS
Visibility
10,000+ meters
Flight Rules
VFR
Cloud Levels
  • Few at 2,600' AGL
  • Scattered at 3,000' AGL
  • Broken at 10,000' AGL
Temperature
11°C / 52°F
Dewpoint
C / 48°F
Humidity
88%
Altimeter
29.91" Hg
Pressure
1012.92 hPa
Previous

1 hour ago

OSLK 212000Z 15008KT 8000 FEW025 CB SCT030 BKN100 11/10 Q1013
Observed
Feb-21 @ 20:00 UTC
Wind
  • 150° at 8 KTS
Visibility
8,000 meters
Flight Rules
MVFR
Cloud Levels
  • Few at 2,500' AGL
  • Scattered at 3,000' AGL
  • Broken at 10,000' AGL
Temperature
11°C / 52°F
Dewpoint
10°C / 50°F
Humidity
94%
Altimeter
29.91" Hg
Pressure
1012.92 hPa
Previous

2 hours ago

OSLK 211900Z 11008KT 6000 TSSHRA FEW026 CB SCT030 OVC100 11/10 Q1013
Observed
Feb-21 @ 19:00 UTC
Wind
  • 110° at 8 KTS
Visibility
6,000 meters
Flight Rules
MVFR
Conditions
Rain, Thunderstorm
Cloud Levels
  • Few at 2,600' AGL
  • Scattered at 3,000' AGL
  • Overcast at 10,000' AGL
Temperature
11°C / 52°F
Dewpoint
10°C / 50°F
Humidity
94%
Altimeter
29.91" Hg
Pressure
1012.92 hPa